Time;durP1;ratioP1;P1;durP2;ratioP2;P2;SDS_P1;SDS_P2;PMS_P1;PMS_P2;Temp;Humidity;BMP_temperature;BMP_pressure;BME280_temperature;BME280_humidity;BME280_pressure;Samples;Min_cycle;Max_cycle;Signal;HPM_P1;HPM_P2
2023/05/14 00:01:33;;;;;;;5.15;3.70;;;12.40;99.90;;;;;;5042880;28;20470;-83
2023/05/14 00:03:58;;;;;;;7.03;4.20;;;12.30;99.90;;;;;;5044263;28;20338;-84
2023/05/14 00:06:24;;;;;;;13.05;4.35;;;12.10;99.90;;;;;;5041513;28;20041;-84
2023/05/14 00:08:50;;;;;;;8.13;5.20;;;12.00;99.90;;;;;;5043472;28;21391;-83
2023/05/14 00:11:15;;;;;;;11.98;5.78;;;12.00;99.90;;;;;;5043235;28;20085;-83
2023/05/14 00:13:41;;;;;;;13.63;5.65;;;11.80;99.90;;;;;;5042773;28;20033;-83
2023/05/14 00:16:07;;;;;;;10.93;5.45;;;11.70;99.90;;;;;;5043095;28;20045;-83
2023/05/14 00:18:32;;;;;;;9.93;5.68;;;11.70;99.90;;;;;;5039664;28;20079;-84
2023/05/14 00:20:58;;;;;;;7.35;5.30;;;11.60;99.90;;;;;;5043159;28;20033;-84
2023/05/14 00:23:23;;;;;;;7.13;4.72;;;11.60;99.90;;;;;;5041214;28;20040;-83
2023/05/14 00:25:49;;;;;;;12.73;7.53;;;11.50;99.90;;;;;;5047507;28;20498;-83
2023/05/14 00:28:15;;;;;;;12.60;5.13;;;11.50;99.90;;;;;;5043535;28;20033;-84
2023/05/14 00:30:41;;;;;;;9.00;5.07;;;11.40;99.90;;;;;;5046586;28;20128;-84
2023/05/14 00:33:07;;;;;;;9.25;5.10;;;11.40;99.90;;;;;;5046250;28;20036;-84
2023/05/14 00:35:34;;;;;;;13.10;5.82;;;11.40;99.90;;;;;;5047771;28;20068;-84
2023/05/14 00:38:01;;;;;;;6.28;5.07;;;11.30;99.90;;;;;;5047796;28;20033;-84
2023/05/14 00:40:26;;;;;;;5.65;4.80;;;11.20;99.90;;;;;;5046064;28;20036;-84
2023/05/14 00:42:53;;;;;;;10.02;5.07;;;11.10;99.90;;;;;;5043937;28;20098;-84
2023/05/14 00:45:19;;;;;;;8.93;5.70;;;11.10;99.90;;;;;;5043895;28;20044;-83
2023/05/14 00:47:46;;;;;;;6.53;5.25;;;11.00;99.90;;;;;;5044022;28;20029;-83
2023/05/14 00:50:12;;;;;;;6.78;5.10;;;11.00;99.90;;;;;;5048160;28;20124;-84
2023/05/14 00:52:39;;;;;;;8.18;5.13;;;10.90;99.90;;;;;;5040887;28;20044;-84
2023/05/14 00:55:05;;;;;;;10.43;4.95;;;10.90;99.90;;;;;;5042816;28;20037;-84
2023/05/14 00:57:33;;;;;;;9.65;5.40;;;10.80;99.90;;;;;;5043426;28;20048;-84
2023/05/14 00:59:59;;;;;;;8.95;4.45;;;10.80;99.90;;;;;;5044830;28;20119;-84
2023/05/14 01:02:25;;;;;;;6.60;4.60;;;10.70;99.90;;;;;;5044534;28;20490;-84
2023/05/14 01:04:51;;;;;;;8.38;5.07;;;10.70;99.90;;;;;;5046797;28;20044;-83
2023/05/14 01:07:36;;;;;;;8.85;4.95;;;10.70;99.90;;;;;;5044146;28;20582;-83
2023/05/14 01:10:08;;;;;;;6.57;4.75;;;10.70;99.90;;;;;;5044721;28;20064;-84
2023/05/14 01:13:01;;;;;;;8.13;5.38;;;10.70;99.90;;;;;;5044789;28;20044;-84
2023/05/14 01:15:35;;;;;;;8.00;5.30;;;10.70;99.90;;;;;;5044796;28;20086;-84
2023/05/14 01:18:08;;;;;;;6.68;4.57;;;10.70;99.90;;;;;;5043225;28;20044;-84
2023/05/14 01:20:35;;;;;;;6.60;4.75;;;10.60;99.90;;;;;;5044394;28;20033;-84
2023/05/14 01:23:01;;;;;;;8.18;4.93;;;10.50;99.90;;;;;;5046454;28;20044;-84
2023/05/14 01:25:29;;;;;;;6.45;5.38;;;10.50;99.90;;;;;;5044692;28;20079;-84
2023/05/14 01:28:27;;;;;;;9.70;5.30;;;10.50;99.90;;;;;;5044081;28;20119;-84
2023/05/14 01:31:17;;;;;;;13.85;5.13;;;10.50;99.90;;;;;;5039845;28;20192;-84
2023/05/14 01:33:43;;;;;;;7.53;5.35;;;10.50;99.90;;;;;;5041046;28;20036;-84
2023/05/14 01:36:09;;;;;;;8.98;4.90;;;10.50;99.90;;;;;;5028970;28;20068;-84
2023/05/14 01:38:36;;;;;;;5.65;4.63;;;10.50;99.90;;;;;;5044889;28;20068;-84
2023/05/14 01:41:05;;;;;;;10.07;5.60;;;10.50;99.90;;;;;;5046023;28;20063;-84
2023/05/14 01:43:31;;;;;;;6.63;5.00;;;10.50;99.90;;;;;;5039792;28;20064;-84
2023/05/14 01:45:57;;;;;;;9.18;5.18;;;10.40;99.90;;;;;;5044169;28;20065;-85
2023/05/14 01:48:23;;;;;;;6.28;5.22;;;10.50;99.90;;;;;;5040936;28;20096;-84
2023/05/14 01:50:49;;;;;;;6.53;4.85;;;10.40;99.90;;;;;;5042641;28;20061;-84
2023/05/14 01:53:15;;;;;;;8.57;6.07;;;10.40;99.90;;;;;;5045231;28;20123;-85
2023/05/14 01:55:40;;;;;;;7.00;5.10;;;10.40;99.90;;;;;;5044186;28;20131;-84
2023/05/14 01:58:06;;;;;;;11.07;5.85;;;10.40;99.90;;;;;;5045856;28;20040;-84
2023/05/14 02:00:31;;;;;;;11.75;5.63;;;10.30;99.90;;;;;;5043457;28;20024;-84
2023/05/14 02:02:58;;;;;;;8.93;5.38;;;10.30;99.90;;;;;;5044643;28;20056;-84
2023/05/14 02:05:23;;;;;;;12.15;4.80;;;10.30;99.90;;;;;;5043579;28;20176;-84
2023/05/14 02:07:50;;;;;;;8.10;5.18;;;10.30;99.90;;;;;;5044540;28;20124;-84
2023/05/14 02:10:15;;;;;;;6.63;5.10;;;10.30;99.90;;;;;;5043691;28;20052;-84
2023/05/14 02:12:41;;;;;;;8.30;5.28;;;10.30;99.90;;;;;;5044334;28;20099;-84
2023/05/14 02:15:09;;;;;;;6.00;5.20;;;10.30;99.90;;;;;;5043526;28;20033;-84
2023/05/14 02:17:35;;;;;;;7.10;5.25;;;10.30;99.90;;;;;;5043345;28;20529;-84
2023/05/14 02:20:01;;;;;;;6.47;4.95;;;10.30;99.90;;;;;;5045153;28;20040;-84
2023/05/14 02:22:28;;;;;;;6.68;5.28;;;10.40;99.90;;;;;;5041362;28;20040;-85
2023/05/14 02:24:53;;;;;;;5.30;4.60;;;10.40;99.90;;;;;;5041947;28;20041;-84
2023/05/14 02:27:20;;;;;;;7.28;4.93;;;10.50;99.90;;;;;;5042170;28;20040;-84
2023/05/14 02:29:46;;;;;;;6.18;4.47;;;10.60;99.90;;;;;;5043089;28;20041;-84
2023/05/14 02:32:12;;;;;;;5.88;4.28;;;10.60;99.90;;;;;;5043957;28;20029;-84
2023/05/14 02:34:37;;;;;;;6.70;4.63;;;10.70;99.90;;;;;;5040408;28;20033;-85
2023/05/14 02:37:03;;;;;;;5.65;4.97;;;10.70;99.90;;;;;;5045917;28;20041;-84
2023/05/14 02:39:29;;;;;;;11.38;5.05;;;10.70;99.90;;;;;;5044914;28;20095;-84
2023/05/14 02:41:54;;;;;;;6.05;4.82;;;10.70;99.90;;;;;;5042261;28;20573;-84
2023/05/14 02:44:27;;;;;;;8.52;5.38;;;10.70;99.90;;;;;;5035670;28;20044;-85
2023/05/14 02:46:53;;;;;;;6.82;5.13;;;10.70;99.90;;;;;;5041090;28;20475;-84
2023/05/14 02:49:21;;;;;;;7.15;5.50;;;10.70;99.90;;;;;;5045036;28;20410;-84
2023/05/14 02:51:47;;;;;;;8.43;5.30;;;10.70;99.90;;;;;;5045103;28;20071;-84
2023/05/14 02:54:12;;;;;;;7.90;5.85;;;10.70;99.90;;;;;;5039318;28;20030;-85
2023/05/14 02:56:38;;;;;;;8.20;6.22;;;10.70;99.90;;;;;;5037549;28;20037;-84
2023/05/14 02:59:03;;;;;;;9.65;5.05;;;10.70;99.90;;;;;;5039053;28;20335;-85
2023/05/14 03:01:29;;;;;;;10.23;5.57;;;10.70;99.90;;;;;;5043098;28;20068;-85
2023/05/14 03:03:55;;;;;;;5.82;4.95;;;10.70;99.90;;;;;;5038605;28;20037;-84
2023/05/14 03:06:20;;;;;;;9.60;4.90;;;10.70;99.90;;;;;;5042160;28;20033;-85
2023/05/14 03:08:47;;;;;;;7.90;5.20;;;10.70;99.90;;;;;;5040835;28;20489;-85
2023/05/14 03:11:19;;;;;;;9.02;5.47;;;10.80;99.90;;;;;;5041759;28;20560;-85
2023/05/14 03:13:45;;;;;;;9.27;6.07;;;10.80;99.90;;;;;;5044581;28;20087;-85
2023/05/14 03:16:10;;;;;;;9.02;6.07;;;10.80;99.90;;;;;;5040723;28;20028;-84
2023/05/14 03:18:36;;;;;;;9.82;5.40;;;10.70;99.90;;;;;;5044980;28;20029;-85
2023/05/14 03:21:02;;;;;;;7.90;5.00;;;10.70;99.90;;;;;;5042809;28;20037;-85
2023/05/14 03:23:33;;;;;;;6.35;5.13;;;10.70;99.90;;;;;;5038970;28;20431;-85
2023/05/14 03:25:59;;;;;;;6.82;5.13;;;10.70;99.90;;;;;;5040721;28;20041;-85
2023/05/14 03:28:25;;;;;;;6.75;4.32;;;10.70;99.90;;;;;;5042013;28;20033;-85
2023/05/14 03:30:52;;;;;;;7.03;5.03;;;10.70;99.90;;;;;;5026360;28;20059;-85
2023/05/14 03:33:18;;;;;;;10.75;4.53;;;10.80;99.90;;;;;;5037237;28;20061;-85
2023/05/14 03:35:43;;;;;;;5.38;4.75;;;10.80;99.90;;;;;;5042762;28;20079;-85
2023/05/14 03:38:09;;;;;;;7.20;5.03;;;10.80;99.90;;;;;;5037718;28;20159;-84
2023/05/14 03:40:35;;;;;;;9.32;5.18;;;10.90;99.90;;;;;;5011067;28;21745;-85
2023/05/14 03:43:01;;;;;;;6.85;5.45;;;10.90;99.90;;;;;;5003285;28;20959;-85
2023/05/14 03:45:27;;;;;;;5.82;4.85;;;10.90;99.90;;;;;;5024468;28;20057;-85
2023/05/14 03:47:53;;;;;;;5.90;5.03;;;10.90;99.90;;;;;;5026084;28;20037;-85
2023/05/14 03:50:19;;;;;;;6.97;4.63;;;10.90;99.90;;;;;;5022651;28;20091;-85
2023/05/14 03:52:44;;;;;;;5.95;4.80;;;10.90;99.90;;;;;;5021160;28;20445;-84
2023/05/14 03:55:10;;;;;;;4.38;3.97;;;10.90;99.90;;;;;;5021083;28;20041;-85
2023/05/14 03:57:36;;;;;;;6.47;4.97;;;10.90;99.90;;;;;;5027359;28;20429;-85
2023/05/14 04:00:03;;;;;;;7.93;4.35;;;10.90;99.90;;;;;;5023339;28;20017;-85
2023/05/14 04:02:29;;;;;;;5.03;4.53;;;10.90;99.90;;;;;;5020714;28;20482;-85
2023/05/14 04:04:55;;;;;;;6.63;5.30;;;10.90;99.90;;;;;;5025237;28;20040;-85
2023/05/14 04:07:20;;;;;;;5.90;5.00;;;11.00;99.90;;;;;;5028851;28;20034;-85
2023/05/14 04:09:46;;;;;;;6.03;5.35;;;11.00;99.90;;;;;;5021916;28;20410;-85
2023/05/14 04:12:11;;;;;;;8.88;6.07;;;10.90;99.90;;;;;;5022796;28;20132;-85
2023/05/14 04:14:37;;;;;;;9.55;5.43;;;10.90;99.90;;;;;;5021763;28;20207;-85
2023/05/14 04:17:03;;;;;;;6.68;5.70;;;10.90;99.90;;;;;;5023698;28;20083;-85
2023/05/14 04:19:28;;;;;;;12.73;5.53;;;11.00;99.90;;;;;;5025969;28;20041;-86
2023/05/14 04:21:54;;;;;;;7.65;5.43;;;10.90;99.90;;;;;;5024423;28;20563;-85
2023/05/14 04:24:19;;;;;;;6.78;5.38;;;11.00;99.90;;;;;;5022282;28;20033;-85
2023/05/14 04:26:45;;;;;;;8.15;6.30;;;11.00;99.90;;;;;;5025662;28;20304;-85
2023/05/14 04:29:10;;;;;;;8.05;5.88;;;11.00;99.90;;;;;;5016775;28;20061;-85
2023/05/14 04:31:43;;;;;;;10.50;6.32;;;11.00;99.90;;;;;;5039091;28;20043;-84
2023/05/14 04:34:09;;;;;;;7.88;5.38;;;11.00;99.90;;;;;;5037188;28;20052;-85
2023/05/14 04:36:35;;;;;;;10.02;5.28;;;11.00;99.90;;;;;;5052370;28;20037;-86
2023/05/14 04:39:00;;;;;;;10.10;5.75;;;11.10;99.90;;;;;;5047594;28;20032;-86
2023/05/14 04:41:26;;;;;;;9.63;5.80;;;11.10;99.90;;;;;;5044902;28;20493;-85
2023/05/14 04:43:55;;;;;;;6.82;6.03;;;11.10;99.90;;;;;;5043099;28;20039;-85
2023/05/14 04:46:24;;;;;;;6.10;4.78;;;11.10;99.90;;;;;;5045385;28;20037;-85
2023/05/14 04:48:50;;;;;;;6.72;5.88;;;11.10;99.90;;;;;;5046688;28;20513;-85
2023/05/14 04:51:16;;;;;;;7.32;5.80;;;11.20;99.90;;;;;;5043509;28;20044;-85
2023/05/14 04:53:43;;;;;;;6.05;5.20;;;11.20;99.90;;;;;;5049002;28;20409;-85
2023/05/14 04:56:09;;;;;;;7.25;5.25;;;11.20;99.90;;;;;;5049685;28;20044;-85
2023/05/14 04:58:35;;;;;;;7.78;6.28;;;11.30;99.90;;;;;;5043546;28;20037;-85
2023/05/14 05:01:01;;;;;;;6.07;5.05;;;11.30;99.90;;;;;;5042424;28;20044;-85
2023/05/14 05:03:27;;;;;;;5.80;5.13;;;11.30;99.90;;;;;;5047865;28;20033;-85
2023/05/14 05:05:53;;;;;;;5.93;4.72;;;11.30;99.90;;;;;;5047789;28;20033;-85
2023/05/14 05:08:18;;;;;;;7.13;5.55;;;11.30;99.90;;;;;;5043952;28;20041;-86
2023/05/14 05:10:44;;;;;;;10.57;6.53;;;11.40;99.90;;;;;;5046967;28;20144;-85
2023/05/14 05:13:09;;;;;;;7.00;5.45;;;11.40;99.90;;;;;;5048432;28;20091;-85
2023/05/14 05:15:35;;;;;;;9.88;6.10;;;11.50;99.90;;;;;;5040709;28;20107;-85
2023/05/14 05:18:01;;;;;;;6.93;5.57;;;11.50;99.90;;;;;;5045298;28;20091;-85
2023/05/14 05:20:29;;;;;;;6.35;5.13;;;11.50;99.90;;;;;;5045104;28;20383;-85
2023/05/14 05:22:55;;;;;;;8.27;7.18;;;11.50;99.90;;;;;;5044506;28;20044;-85
2023/05/14 05:25:21;;;;;;;8.48;6.38;;;11.60;99.90;;;;;;5046397;28;20043;-85
2023/05/14 05:27:47;;;;;;;7.18;6.32;;;11.60;99.90;;;;;;5045087;28;20472;-85
2023/05/14 05:30:12;;;;;;;10.95;6.68;;;11.60;99.90;;;;;;5046735;28;20056;-85
2023/05/14 05:36:00;;;;;;;7.57;6.45;;;11.70;99.90;;;;;;5032661;28;20037;-85
2023/05/14 05:38:26;;;;;;;8.88;7.20;;;11.70;99.90;;;;;;5044287;28;20033;-84
2023/05/14 05:40:51;;;;;;;10.23;6.40;;;11.80;99.90;;;;;;5049887;28;20112;-84
2023/05/14 05:43:17;;;;;;;8.02;5.80;;;11.80;99.90;;;;;;5045648;28;20036;-84
2023/05/14 05:45:44;;;;;;;6.97;4.95;;;11.80;99.90;;;;;;5046568;28;20496;-84
2023/05/14 05:48:10;;;;;;;8.05;5.70;;;11.80;99.90;;;;;;5041214;28;20501;-85
2023/05/14 05:50:36;;;;;;;6.03;5.15;;;11.80;99.90;;;;;;5046097;28;20071;-85
2023/05/14 05:53:01;;;;;;;7.88;5.78;;;11.90;99.90;;;;;;5042661;28;20045;-84
2023/05/14 05:55:28;;;;;;;8.50;5.72;;;11.90;99.90;;;;;;5041866;28;20470;-84
2023/05/14 05:57:53;;;;;;;8.60;6.45;;;11.90;99.90;;;;;;5040675;28;20037;-84
2023/05/14 06:00:19;;;;;;;8.65;6.13;;;11.90;99.90;;;;;;5044831;28;20040;-85
2023/05/14 06:02:45;;;;;;;10.45;6.22;;;12.00;99.90;;;;;;5041159;28;20312;-84
2023/05/14 06:05:11;;;;;;;10.25;6.57;;;12.00;99.90;;;;;;5043317;28;20036;-84
2023/05/14 06:07:37;;;;;;;10.15;6.38;;;12.00;99.90;;;;;;5044020;28;20037;-84
2023/05/14 06:10:03;;;;;;;11.05;5.90;;;12.00;99.90;;;;;;5038644;28;20049;-85
2023/05/14 06:12:29;;;;;;;7.18;5.65;;;12.00;99.90;;;;;;5039253;28;20037;-85
2023/05/14 06:14:56;;;;;;;15.43;6.65;;;12.00;99.90;;;;;;5037256;28;20029;-84
2023/05/14 06:17:24;;;;;;;10.82;5.75;;;12.10;99.90;;;;;;5023916;28;20115;-84
2023/05/14 06:19:50;;;;;;;10.25;7.00;;;12.10;99.90;;;;;;5040814;28;20033;-84
2023/05/14 06:22:18;;;;;;;12.43;7.45;;;12.20;99.90;;;;;;5038189;28;20134;-85
2023/05/14 06:24:43;;;;;;;11.25;6.82;;;12.20;99.90;;;;;;5040600;28;20322;-84
2023/05/14 06:27:10;;;;;;;8.85;7.22;;;12.20;99.90;;;;;;5042223;28;20036;-84
2023/05/14 06:29:36;;;;;;;9.70;7.10;;;12.30;99.90;;;;;;5035050;28;20045;-84
2023/05/14 06:32:02;;;;;;;12.52;6.80;;;12.30;99.90;;;;;;5041279;28;20044;-84
2023/05/14 06:34:29;;;;;;;10.57;7.28;;;12.30;99.90;;;;;;5041628;28;20043;-85
2023/05/14 06:36:56;;;;;;;8.30;6.50;;;12.40;99.90;;;;;;5040763;28;20045;-84
2023/05/14 06:39:24;;;;;;;15.15;6.68;;;12.40;99.90;;;;;;5044210;28;20037;-84
2023/05/14 06:41:50;;;;;;;11.02;7.47;;;12.40;99.90;;;;;;5040217;28;20103;-84
2023/05/14 06:44:17;;;;;;;11.25;7.13;;;12.40;99.90;;;;;;5040242;28;20033;-84
2023/05/14 06:46:43;;;;;;;7.93;6.32;;;12.40;99.90;;;;;;5041663;28;20096;-84
2023/05/14 06:49:09;;;;;;;11.57;7.60;;;12.50;99.90;;;;;;5044174;28;20068;-84
2023/05/14 06:51:34;;;;;;;10.30;7.18;;;12.50;99.90;;;;;;5044732;28;20111;-85
2023/05/14 06:54:00;;;;;;;10.00;7.50;;;12.50;99.90;;;;;;5045468;28;20063;-83
2023/05/14 06:56:25;;;;;;;11.38;7.40;;;12.70;99.90;;;;;;5040235;28;20033;-84
2023/05/14 06:58:51;;;;;;;17.27;6.68;;;12.70;99.90;;;;;;5040142;28;20037;-84
2023/05/14 07:01:16;;;;;;;9.75;7.40;;;12.80;99.90;;;;;;5044171;28;20037;-84
2023/05/14 07:03:42;;;;;;;8.98;6.80;;;12.80;99.90;;;;;;5042108;28;20033;-84
2023/05/14 07:06:08;;;;;;;9.45;7.25;;;12.80;99.90;;;;;;5025779;28;20047;-84
2023/05/14 07:08:34;;;;;;;11.93;7.18;;;12.80;99.90;;;;;;5035900;28;20111;-85
2023/05/14 07:11:00;;;;;;;13.32;6.53;;;12.90;99.90;;;;;;5042527;28;20520;-84
2023/05/14 07:13:27;;;;;;;10.13;7.78;;;12.90;99.90;;;;;;5038878;28;20056;-84
2023/05/14 07:15:54;;;;;;;13.82;7.53;;;13.00;99.90;;;;;;5039310;28;20043;-84
2023/05/14 07:18:20;;;;;;;9.27;7.03;;;13.00;99.90;;;;;;5040053;28;20038;-84
2023/05/14 07:20:46;;;;;;;6.65;5.43;;;13.10;99.90;;;;;;5042920;28;20039;-84
2023/05/14 07:23:11;;;;;;;8.77;5.82;;;13.10;99.90;;;;;;5039623;28;20041;-84
2023/05/14 07:25:37;;;;;;;8.45;5.72;;;13.10;99.90;;;;;;5043088;28;20028;-84
2023/05/14 07:28:02;;;;;;;12.68;5.90;;;13.10;99.90;;;;;;5042766;28;20029;-84
2023/05/14 07:30:28;;;;;;;6.03;5.43;;;13.20;99.90;;;;;;5041791;28;20052;-84
2023/05/14 07:32:54;;;;;;;7.72;6.50;;;13.20;99.90;;;;;;5034058;28;20045;-84
2023/05/14 07:35:19;;;;;;;8.98;6.53;;;13.20;99.90;;;;;;5040575;28;20075;-85
2023/05/14 07:37:45;;;;;;;12.10;7.00;;;13.20;99.90;;;;;;5040566;28;20508;-84
2023/05/14 07:40:11;;;;;;;12.32;6.55;;;13.30;99.90;;;;;;5038488;28;20553;-85
2023/05/14 07:42:42;;;;;;;5.97;5.35;;;13.30;99.90;;;;;;5024905;28;20087;-84
2023/05/14 07:45:08;;;;;;;8.82;6.80;;;13.30;99.90;;;;;;5037474;28;20033;-84
2023/05/14 07:47:34;;;;;;;10.10;6.65;;;13.30;99.90;;;;;;5042620;28;20037;-84
2023/05/14 07:49:59;;;;;;;9.40;6.53;;;13.40;99.90;;;;;;5040089;28;20045;-84
2023/05/14 07:52:25;;;;;;;10.30;7.47;;;13.40;99.90;;;;;;5041519;28;20033;-85
2023/05/14 07:54:51;;;;;;;10.05;7.30;;;13.40;99.90;;;;;;5041443;28;20040;-84
2023/05/14 07:57:18;;;;;;;11.00;7.88;;;13.40;99.90;;;;;;5023303;28;20083;-85
2023/05/14 07:59:43;;;;;;;11.13;8.15;;;13.40;99.90;;;;;;5045340;28;20037;-85
2023/05/14 08:02:11;;;;;;;10.48;7.63;;;13.40;99.90;;;;;;5040675;28;20412;-85
2023/05/14 08:04:37;;;;;;;10.93;6.90;;;13.40;99.90;;;;;;5043344;28;20123;-84
2023/05/14 08:07:03;;;;;;;10.60;7.15;;;13.40;99.90;;;;;;5043386;28;20206;-84
2023/05/14 08:09:28;;;;;;;11.55;7.85;;;13.40;99.90;;;;;;5037914;28;20056;-84
2023/05/14 08:11:54;;;;;;;8.23;7.13;;;13.40;99.90;;;;;;5043307;28;20044;-84
2023/05/14 08:14:20;;;;;;;9.00;7.82;;;13.40;99.90;;;;;;5040645;28;20040;-85
2023/05/14 08:16:46;;;;;;;9.50;6.63;;;13.40;99.90;;;;;;5038838;28;20028;-84
2023/05/14 08:19:12;;;;;;;9.07;7.72;;;13.40;99.90;;;;;;5043749;28;20346;-84
2023/05/14 08:21:38;;;;;;;11.93;8.70;;;13.40;99.90;;;;;;5043199;28;20127;-85
2023/05/14 08:24:03;;;;;;;10.43;7.28;;;13.50;99.90;;;;;;5035609;28;20409;-84
2023/05/14 08:26:29;;;;;;;11.02;8.23;;;13.50;99.90;;;;;;5019176;28;20225;-84
2023/05/14 08:28:55;;;;;;;13.18;8.07;;;13.50;99.90;;;;;;5025667;28;20136;-85
2023/05/14 08:31:20;;;;;;;8.88;6.80;;;13.50;99.90;;;;;;5043209;28;20045;-85
2023/05/14 08:33:46;;;;;;;9.50;7.28;;;13.60;99.90;;;;;;5039625;28;20040;-85
2023/05/14 08:36:12;;;;;;;13.13;8.13;;;13.60;99.90;;;;;;5028532;28;20060;-84
2023/05/14 08:38:38;;;;;;;14.15;8.55;;;13.60;99.90;;;;;;5040384;28;20407;-84
2023/05/14 08:41:05;;;;;;;11.93;9.00;;;13.60;99.90;;;;;;5043841;28;20123;-83
2023/05/14 08:43:52;;;;;;;9.85;8.25;;;13.80;99.90;;;;;;5039896;28;20124;-85
2023/05/14 08:46:23;;;;;;;13.23;7.32;;;13.80;99.90;;;;;;5028266;28;20298;-85
2023/05/14 08:48:59;;;;;;;10.32;7.78;;;13.90;99.90;;;;;;5047271;28;20560;-84
2023/05/14 08:51:26;;;;;;;11.45;7.55;;;13.90;99.90;;;;;;5043781;28;20083;-84
2023/05/14 08:53:52;;;;;;;10.10;7.38;;;13.90;99.90;;;;;;5048039;28;20041;-85
2023/05/14 08:56:18;;;;;;;13.13;7.07;;;13.90;99.90;;;;;;5044567;28;20437;-84
2023/05/14 08:58:44;;;;;;;6.55;5.40;;;13.90;99.90;;;;;;5044142;28;20033;-84
2023/05/14 09:01:10;;;;;;;6.90;5.05;;;14.00;99.90;;;;;;5046587;28;20048;-85
2023/05/14 09:03:36;;;;;;;8.32;5.95;;;14.00;99.90;;;;;;5044140;28;20040;-84
2023/05/14 09:06:02;;;;;;;11.18;6.10;;;14.00;99.90;;;;;;5047822;28;20041;-84
2023/05/14 09:08:28;;;;;;;7.30;5.18;;;14.00;99.90;;;;;;5046345;28;20061;-84
2023/05/14 09:10:54;;;;;;;17.83;6.43;;;14.10;99.90;;;;;;5052271;28;20506;-83
2023/05/14 09:13:20;;;;;;;7.35;5.95;;;14.20;99.90;;;;;;5043783;28;20037;-83
2023/05/14 09:15:47;;;;;;;13.35;5.55;;;14.40;99.90;;;;;;5044218;28;20741;-84
2023/05/14 09:18:12;;;;;;;8.95;5.10;;;14.50;99.90;;;;;;5027308;28;20040;-85
2023/05/14 09:20:38;;;;;;;7.45;5.75;;;14.60;99.90;;;;;;5042499;28;20466;-84
2023/05/14 09:23:04;;;;;;;8.35;5.28;;;14.70;99.90;;;;;;5045423;28;20045;-85
2023/05/14 09:25:32;;;;;;;7.90;5.55;;;14.80;99.90;;;;;;5043505;28;20047;-84
2023/05/14 09:27:58;;;;;;;11.73;5.38;;;14.80;99.90;;;;;;5041418;28;20037;-83
2023/05/14 09:30:25;;;;;;;8.80;5.70;;;14.80;99.90;;;;;;5024205;28;20045;-84
2023/05/14 09:32:53;;;;;;;9.88;6.18;;;14.90;99.90;;;;;;5026151;28;20052;-83
2023/05/14 09:35:23;;;;;;;8.05;5.68;;;14.90;99.90;;;;;;5042982;28;20025;-84
2023/05/14 09:37:55;;;;;;;9.93;6.75;;;14.90;99.90;;;;;;5033538;28;20048;-83
2023/05/14 09:40:22;;;;;;;12.23;5.72;;;15.00;99.90;;;;;;5039695;28;20057;-85
2023/05/14 09:42:48;;;;;;;11.15;7.45;;;15.00;99.90;;;;;;5044702;28;20036;-82
2023/05/14 09:45:14;;;;;;;10.95;7.22;;;15.00;99.90;;;;;;5049269;28;20135;-84
2023/05/14 09:47:40;;;;;;;18.05;7.35;;;15.10;99.90;;;;;;5045481;28;20033;-84
2023/05/14 09:50:06;;;;;;;13.95;8.45;;;15.20;99.90;;;;;;5037353;28;20045;-83
2023/05/14 09:52:32;;;;;;;9.05;6.10;;;15.30;99.90;;;;;;5041840;28;20025;-84
2023/05/14 09:55:01;;;;;;;10.77;6.60;;;15.40;99.90;;;;;;5044115;28;20033;-84
2023/05/14 09:57:27;;;;;;;11.93;6.85;;;15.40;99.90;;;;;;5026547;28;20534;-83
2023/05/14 09:59:53;;;;;;;11.95;7.03;;;15.50;99.90;;;;;;5040041;28;20044;-84
2023/05/14 10:02:23;;;;;;;12.15;6.28;;;15.60;99.90;;;;;;5041441;28;20051;-82
2023/05/14 10:04:52;;;;;;;16.85;8.60;;;15.70;99.90;;;;;;5036578;28;20037;-85
2023/05/14 10:07:22;;;;;;;13.35;7.55;;;15.80;99.90;;;;;;5044670;28;20041;-82
2023/05/14 10:09:53;;;;;;;11.43;7.38;;;16.00;99.90;;;;;;5045750;28;20050;-83
2023/05/14 10:12:22;;;;;;;14.70;7.57;;;16.10;99.90;;;;;;5043089;28;20036;-83
2023/05/14 10:14:52;;;;;;;16.60;7.50;;;16.20;99.90;;;;;;5041692;28;20109;-83
2023/05/14 10:17:21;;;;;;;11.90;8.57;;;16.20;99.90;;;;;;5043561;28;20041;-81
2023/05/14 10:19:51;;;;;;;18.83;8.05;;;16.30;99.90;;;;;;5043169;28;20059;-82
2023/05/14 10:22:21;;;;;;;16.52;9.30;;;16.40;99.90;;;;;;5040628;28;20033;-82
2023/05/14 10:24:51;;;;;;;10.05;7.13;;;16.40;99.90;;;;;;5043003;28;20040;-83
2023/05/14 10:27:19;;;;;;;11.85;7.38;;;16.40;99.90;;;;;;5039356;28;20087;-83
2023/05/14 10:29:53;;;;;;;8.30;7.10;;;16.50;99.90;;;;;;5038510;28;20069;-83
2023/05/14 10:32:24;;;;;;;14.13;8.10;;;16.50;99.90;;;;;;5035398;28;20079;-83
2023/05/14 10:34:51;;;;;;;14.70;7.32;;;16.60;99.90;;;;;;5044272;28;20033;-83
2023/05/14 10:37:22;;;;;;;9.75;6.95;;;16.60;99.90;;;;;;5043600;28;20041;-82
2023/05/14 10:40:00;;;;;;;8.57;6.53;;;16.60;99.90;;;;;;5042041;28;20064;-83
2023/05/14 10:42:42;;;;;;;8.85;6.50;;;16.60;99.90;;;;;;5039931;28;20086;-83
2023/05/14 10:45:12;;;;;;;13.93;7.95;;;16.60;99.90;;;;;;5042010;28;21084;-85
2023/05/14 10:47:42;;;;;;;11.00;8.13;;;16.70;99.90;;;;;;5038229;28;20103;-83
2023/05/14 10:50:11;;;;;;;10.63;7.13;;;16.80;99.90;;;;;;5043745;28;20049;-83
2023/05/14 10:52:36;;;;;;;8.73;5.93;;;16.90;99.90;;;;;;5041849;28;20027;-84
2023/05/14 10:55:07;;;;;;;13.90;7.07;;;16.90;99.90;;;;;;5040590;28;20037;-83
2023/05/14 10:57:36;;;;;;;8.88;6.50;;;16.90;99.90;;;;;;5040658;28;20033;-83
2023/05/14 11:00:12;;;;;;;30.42;7.50;;;17.00;99.90;;;;;;5042222;28;20554;-85
2023/05/14 11:02:40;;;;;;;62.08;8.35;;;17.10;99.90;;;;;;5042991;28;20092;-84
2023/05/14 11:05:16;;;;;;;30.38;6.80;;;17.20;99.90;;;;;;5044534;28;20045;-79
2023/05/14 11:07:44;;;;;;;13.27;6.30;;;17.30;99.90;;;;;;5041418;28;20188;-82
2023/05/14 11:10:11;;;;;;;6.95;5.00;;;17.50;99.90;;;;;;5012493;28;20081;-83
2023/05/14 11:12:40;;;;;;;18.58;5.30;;;17.50;99.90;;;;;;4982897;28;20078;-82
2023/05/14 11:15:12;;;;;;;6.35;4.80;;;17.40;99.90;;;;;;4995715;28;20058;-82
2023/05/14 11:17:40;;;;;;;7.68;5.03;;;17.50;99.90;;;;;;4943232;28;20034;-83
2023/05/14 11:20:06;;;;;;;8.95;5.35;;;17.40;99.90;;;;;;5005554;28;20038;-82
2023/05/14 11:22:36;;;;;;;7.60;5.00;;;17.50;99.90;;;;;;4951264;28;20061;-84
2023/05/14 11:25:02;;;;;;;11.43;4.97;;;17.60;99.90;;;;;;4938040;28;20054;-81
2023/05/14 11:27:29;;;;;;;12.32;5.07;;;17.60;99.90;;;;;;4974483;28;20407;-82
2023/05/14 11:29:54;;;;;;;10.88;5.28;;;17.70;99.90;;;;;;4993357;28;20062;-82
2023/05/14 11:32:20;;;;;;;11.45;5.18;;;17.70;99.90;;;;;;4990297;28;20041;-82
2023/05/14 11:34:46;;;;;;;9.93;5.18;;;17.60;99.90;;;;;;4946311;28;20056;-84
2023/05/14 11:37:14;;;;;;;8.23;4.80;;;17.60;99.90;;;;;;4984694;28;20086;-81
2023/05/14 11:39:48;;;;;;;14.75;6.15;;;17.70;99.90;;;;;;4971575;28;20033;-82
2023/05/14 11:42:16;;;;;;;9.38;5.88;;;17.70;99.90;;;;;;4986123;28;20050;-82
2023/05/14 11:44:43;;;;;;;8.45;5.85;;;17.70;99.90;;;;;;4969454;28;20506;-82
2023/05/14 11:47:09;;;;;;;9.82;5.70;;;17.70;99.90;;;;;;5012992;28;20070;-83
2023/05/14 11:49:36;;;;;;;10.48;5.10;;;17.70;99.90;;;;;;4984054;28;20041;-84
2023/05/14 11:52:05;;;;;;;12.60;4.88;;;17.70;99.90;;;;;;4964463;28;20397;-83
2023/05/14 11:54:33;;;;;;;6.70;4.20;;;17.80;99.90;;;;;;4941496;28;20541;-82
2023/05/14 11:57:07;;;;;;;9.73;5.55;;;17.80;99.90;;;;;;4951723;28;20036;-82
2023/05/14 11:59:32;;;;;;;13.05;6.43;;;17.80;99.90;;;;;;4954883;28;20493;-80
2023/05/14 12:01:58;;;;;;;11.07;5.20;;;17.90;99.90;;;;;;4945960;28;20036;-82
2023/05/14 12:04:25;;;;;;;9.27;5.55;;;18.00;99.90;;;;;;4945773;28;20032;-82
2023/05/14 12:06:51;;;;;;;8.38;4.97;;;18.10;99.90;;;;;;4984000;28;20876;-81
2023/05/14 12:09:21;;;;;;;11.50;5.72;;;18.10;99.90;;;;;;4949043;28;20070;-82
2023/05/14 12:11:49;;;;;;;7.75;4.78;;;18.20;99.90;;;;;;5030838;28;20048;-82
2023/05/14 12:14:16;;;;;;;6.75;4.25;;;18.20;99.90;;;;;;5046216;28;20029;-84
2023/05/14 12:16:43;;;;;;;11.02;4.88;;;18.20;99.90;;;;;;5049707;28;20040;-83
2023/05/14 12:19:10;;;;;;;8.38;4.32;;;18.10;99.90;;;;;;5048056;28;20072;-82
2023/05/14 12:21:37;;;;;;;7.15;4.70;;;18.10;99.90;;;;;;5044222;28;20540;-81
2023/05/14 12:24:03;;;;;;;9.43;5.00;;;18.10;99.90;;;;;;5049339;28;20064;-83
2023/05/14 12:26:32;;;;;;;6.57;4.57;;;18.10;99.90;;;;;;5048093;28;20025;-83
2023/05/14 12:29:02;;;;;;;9.95;4.18;;;18.10;99.90;;;;;;5046829;28;20067;-82
2023/05/14 12:31:35;;;;;;;8.40;3.90;;;18.10;99.90;;;;;;5044539;28;20637;-84
2023/05/14 12:34:22;;;;;;;5.65;3.67;;;18.20;99.90;;;;;;5041849;28;20048;-82
2023/05/14 12:36:47;;;;;;;7.75;3.70;;;18.20;99.90;;;;;;5040655;28;20037;-81
2023/05/14 12:39:13;;;;;;;5.82;3.10;;;18.20;99.90;;;;;;5046349;28;20041;-82
2023/05/14 12:41:39;;;;;;;8.40;2.97;;;18.20;99.90;;;;;;5038094;28;20044;-82
2023/05/14 12:44:05;;;;;;;12.13;3.88;;;18.30;99.90;;;;;;5042382;28;20363;-83
2023/05/14 12:46:31;;;;;;;6.15;3.40;;;18.30;99.90;;;;;;5046083;28;20128;-81